sensor_id;sensor_type;location;lat;lon;timestamp;temperature;humidity
66026;SHT31;56312;55.976;37.136;2024-02-26T00:00:23;-1.46;73.84
66026;SHT31;56312;55.976;37.136;2024-02-26T00:05:29;-1.53;73.87
66026;SHT31;56312;55.976;37.136;2024-02-26T00:10:37;-1.53;73.74
66026;SHT31;56312;55.976;37.136;2024-02-26T00:15:43;-1.52;73.79
66026;SHT31;56312;55.976;37.136;2024-02-26T00:20:48;-1.55;73.74
66026;SHT31;56312;55.976;37.136;2024-02-26T00:25:54;-1.52;73.74
66026;SHT31;56312;55.976;37.136;2024-02-26T00:31:00;-1.53;73.72
66026;SHT31;56312;55.976;37.136;2024-02-26T00:36:06;-1.53;73.75
66026;SHT31;56312;55.976;37.136;2024-02-26T00:41:12;-1.56;73.79
66026;SHT31;56312;55.976;37.136;2024-02-26T00:46:18;-1.51;73.82
66026;SHT31;56312;55.976;37.136;2024-02-26T00:51:24;-1.44;73.85
66026;SHT31;56312;55.976;37.136;2024-02-26T00:56:30;-1.53;73.69
66026;SHT31;56312;55.976;37.136;2024-02-26T01:01:36;-1.55;73.69
66026;SHT31;56312;55.976;37.136;2024-02-26T01:06:42;-1.58;73.65
66026;SHT31;56312;55.976;37.136;2024-02-26T01:11:47;-1.58;73.68
66026;SHT31;56312;55.976;37.136;2024-02-26T01:16:53;-1.60;73.62
66026;SHT31;56312;55.976;37.136;2024-02-26T01:21:59;-1.51;73.60
66026;SHT31;56312;55.976;37.136;2024-02-26T01:27:05;-1.58;73.48
66026;SHT31;56312;55.976;37.136;2024-02-26T01:32:13;-1.58;73.46
66026;SHT31;56312;55.976;37.136;2024-02-26T01:37:19;-1.56;73.41
66026;SHT31;56312;55.976;37.136;2024-02-26T01:42:25;-1.60;73.35
66026;SHT31;56312;55.976;37.136;2024-02-26T01:47:31;-1.65;73.25
66026;SHT31;56312;55.976;37.136;2024-02-26T01:52:37;-1.65;73.26
66026;SHT31;56312;55.976;37.136;2024-02-26T01:57:44;-1.67;73.16
66026;SHT31;56312;55.976;37.136;2024-02-26T02:02:51;-1.73;73.03
66026;SHT31;56312;55.976;37.136;2024-02-26T02:07:58;-1.76;73.01
66026;SHT31;56312;55.976;37.136;2024-02-26T02:13:04;-1.86;72.93
66026;SHT31;56312;55.976;37.136;2024-02-26T02:18:10;-1.83;72.90
66026;SHT31;56312;55.976;37.136;2024-02-26T02:23:16;-1.82;72.87
66026;SHT31;56312;55.976;37.136;2024-02-26T02:28:25;-1.86;72.80
66026;SHT31;56312;55.976;37.136;2024-02-26T02:33:32;-1.86;72.79
66026;SHT31;56312;55.976;37.136;2024-02-26T02:38:48;-1.80;72.79
66026;SHT31;56312;55.976;37.136;2024-02-26T02:43:55;-1.79;72.74
66026;SHT31;56312;55.976;37.136;2024-02-26T02:49:01;-1.86;72.66
66026;SHT31;56312;55.976;37.136;2024-02-26T02:54:07;-1.86;72.66
66026;SHT31;56312;55.976;37.136;2024-02-26T02:59:13;-1.89;72.56
66026;SHT31;56312;55.976;37.136;2024-02-26T03:04:19;-1.90;72.57
66026;SHT31;56312;55.976;37.136;2024-02-26T03:09:25;-1.90;72.54
66026;SHT31;56312;55.976;37.136;2024-02-26T03:14:31;-1.87;72.52
66026;SHT31;56312;55.976;37.136;2024-02-26T03:19:37;-1.89;72.48
66026;SHT31;56312;55.976;37.136;2024-02-26T03:24:43;-1.89;72.41
66026;SHT31;56312;55.976;37.136;2024-02-26T03:29:49;-1.89;72.38
66026;SHT31;56312;55.976;37.136;2024-02-26T03:34:55;-1.83;72.36
66026;SHT31;56312;55.976;37.136;2024-02-26T03:40:01;-1.87;72.30
66026;SHT31;56312;55.976;37.136;2024-02-26T03:45:07;-1.86;72.27
66026;SHT31;56312;55.976;37.136;2024-02-26T03:50:14;-1.87;72.21
66026;SHT31;56312;55.976;37.136;2024-02-26T03:55:22;-1.90;72.19
66026;SHT31;56312;55.976;37.136;2024-02-26T04:00:30;-1.90;72.14
66026;SHT31;56312;55.976;37.136;2024-02-26T04:05:36;-1.93;72.07
66026;SHT31;56312;55.976;37.136;2024-02-26T04:10:42;-1.89;72.00
66026;SHT31;56312;55.976;37.136;2024-02-26T04:15:48;-1.95;71.92
66026;SHT31;56312;55.976;37.136;2024-02-26T04:20:54;-2.05;71.88
66026;SHT31;56312;55.976;37.136;2024-02-26T04:26:00;-2.04;71.94
66026;SHT31;56312;55.976;37.136;2024-02-26T04:31:05;-2.03;71.83
66026;SHT31;56312;55.976;37.136;2024-02-26T04:36:14;-2.08;71.84
66026;SHT31;56312;55.976;37.136;2024-02-26T04:41:23;-2.04;71.84
66026;SHT31;56312;55.976;37.136;2024-02-26T04:46:29;-2.04;71.78
66026;SHT31;56312;55.976;37.136;2024-02-26T04:51:35;-2.01;71.71
66026;SHT31;56312;55.976;37.136;2024-02-26T04:56:41;-2.01;71.71
66026;SHT31;56312;55.976;37.136;2024-02-26T05:01:47;-2.03;71.67
66026;SHT31;56312;55.976;37.136;2024-02-26T05:06:52;-2.01;71.68
66026;SHT31;56312;55.976;37.136;2024-02-26T05:11:59;-1.94;71.64
66026;SHT31;56312;55.976;37.136;2024-02-26T05:17:05;-1.94;71.61
66026;SHT31;56312;55.976;37.136;2024-02-26T05:22:11;-1.90;71.62
66026;SHT31;56312;55.976;37.136;2024-02-26T05:27:18;-1.80;71.60
66026;SHT31;56312;55.976;37.136;2024-02-26T05:32:24;-1.82;71.55
66026;SHT31;56312;55.976;37.136;2024-02-26T05:37:30;-1.65;71.62
66026;SHT31;56312;55.976;37.136;2024-02-26T05:42:36;-1.49;71.57
66026;SHT31;56312;55.976;37.136;2024-02-26T05:47:42;-1.51;71.38
66026;SHT31;56312;55.976;37.136;2024-02-26T05:52:50;-1.52;71.43
66026;SHT31;56312;55.976;37.136;2024-02-26T05:57:56;-1.38;71.41
66026;SHT31;56312;55.976;37.136;2024-02-26T06:03:02;-1.36;71.28
66026;SHT31;56312;55.976;37.136;2024-02-26T06:08:08;-1.35;71.21
66026;SHT31;56312;55.976;37.136;2024-02-26T06:13:14;-1.42;71.23
66026;SHT31;56312;55.976;37.136;2024-02-26T06:18:20;-1.28;71.33
66026;SHT31;56312;55.976;37.136;2024-02-26T06:23:26;-1.18;71.27
66026;SHT31;56312;55.976;37.136;2024-02-26T06:28:34;-1.21;71.24
66026;SHT31;56312;55.976;37.136;2024-02-26T06:33:43;-1.24;71.14
66026;SHT31;56312;55.976;37.136;2024-02-26T06:38:49;-1.18;71.14
66026;SHT31;56312;55.976;37.136;2024-02-26T06:43:55;-1.21;71.14
66026;SHT31;56312;55.976;37.136;2024-02-26T06:49:01;-1.31;71.09
66026;SHT31;56312;55.976;37.136;2024-02-26T06:54:07;-1.19;71.20
66026;SHT31;56312;55.976;37.136;2024-02-26T06:59:13;-1.08;71.14
66026;SHT31;56312;55.976;37.136;2024-02-26T07:04:19;-0.93;71.20
66026;SHT31;56312;55.976;37.136;2024-02-26T07:09:24;-0.60;71.17
66026;SHT31;56312;55.976;37.136;2024-02-26T07:14:30;-0.59;71.09
66026;SHT31;56312;55.976;37.136;2024-02-26T07:19:38;-0.43;71.00
66026;SHT31;56312;55.976;37.136;2024-02-26T07:24:44;-0.28;71.13
66026;SHT31;56312;55.976;37.136;2024-02-26T07:29:49;0.13;71.06
66026;SHT31;56312;55.976;37.136;2024-02-26T07:34:55;0.34;70.91
66026;SHT31;56312;55.976;37.136;2024-02-26T07:40:01;0.10;70.61
66026;SHT31;56312;55.976;37.136;2024-02-26T07:45:09;0.07;70.55
66026;SHT31;56312;55.976;37.136;2024-02-26T07:50:16;-0.02;70.49
66026;SHT31;56312;55.976;37.136;2024-02-26T07:55:21;0.16;70.59
66026;SHT31;56312;55.976;37.136;2024-02-26T08:00:28;0.30;70.52
66026;SHT31;56312;55.976;37.136;2024-02-26T08:05:34;0.14;70.35
66026;SHT31;56312;55.976;37.136;2024-02-26T08:10:40;0.24;70.49
66026;SHT31;56312;55.976;37.136;2024-02-26T08:15:46;0.51;70.33
66026;SHT31;56312;55.976;37.136;2024-02-26T08:20:52;0.34;70.24
66026;SHT31;56312;55.976;37.136;2024-02-26T08:25:58;0.36;70.29
66026;SHT31;56312;55.976;37.136;2024-02-26T08:31:04;0.33;70.19
66026;SHT31;56312;55.976;37.136;2024-02-26T08:36:11;0.16;70.12
66026;SHT31;56312;55.976;37.136;2024-02-26T08:41:17;0.40;70.26
66026;SHT31;56312;55.976;37.136;2024-02-26T08:46:23;0.68;70.26
66026;SHT31;56312;55.976;37.136;2024-02-26T08:51:28;0.71;70.08
66026;SHT31;56312;55.976;37.136;2024-02-26T08:56:34;0.68;69.99
66026;SHT31;56312;55.976;37.136;2024-02-26T09:01:40;0.96;70.22
66026;SHT31;56312;55.976;37.136;2024-02-26T09:06:47;1.02;69.97
66026;SHT31;56312;55.976;37.136;2024-02-26T09:11:53;0.99;70.01
66026;SHT31;56312;55.976;37.136;2024-02-26T09:17:00;0.96;69.86
66026;SHT31;56312;55.976;37.136;2024-02-26T09:22:06;1.17;70.00
66026;SHT31;56312;55.976;37.136;2024-02-26T09:27:12;1.04;70.01
66026;SHT31;56312;55.976;37.136;2024-02-26T09:32:18;1.50;70.07
66026;SHT31;56312;55.976;37.136;2024-02-26T09:37:24;1.60;69.97
66026;SHT31;56312;55.976;37.136;2024-02-26T09:42:31;1.62;69.85
66026;SHT31;56312;55.976;37.136;2024-02-26T09:47:38;1.34;69.65
66026;SHT31;56312;55.976;37.136;2024-02-26T09:52:44;1.44;69.82
66026;SHT31;56312;55.976;37.136;2024-02-26T09:57:51;1.57;69.86
66026;SHT31;56312;55.976;37.136;2024-02-26T10:02:58;1.69;69.67
66026;SHT31;56312;55.976;37.136;2024-02-26T10:08:04;1.71;69.62
66026;SHT31;56312;55.976;37.136;2024-02-26T10:13:10;1.74;69.67
66026;SHT31;56312;55.976;37.136;2024-02-26T10:18:17;1.79;69.54
66026;SHT31;56312;55.976;37.136;2024-02-26T10:23:25;1.74;69.35
66026;SHT31;56312;55.976;37.136;2024-02-26T10:28:31;1.77;69.49
66026;SHT31;56312;55.976;37.136;2024-02-26T10:33:38;1.98;69.30
66026;SHT31;56312;55.976;37.136;2024-02-26T10:38:44;2.02;69.42
66026;SHT31;56312;55.976;37.136;2024-02-26T10:43:51;1.98;69.35
66026;SHT31;56312;55.976;37.136;2024-02-26T10:48:57;2.02;69.32
66026;SHT31;56312;55.976;37.136;2024-02-26T10:54:04;2.07;69.19
66026;SHT31;56312;55.976;37.136;2024-02-26T10:59:14;2.10;69.14
66026;SHT31;56312;55.976;37.136;2024-02-26T11:04:21;2.01;69.05
66026;SHT31;56312;55.976;37.136;2024-02-26T11:09:28;1.92;68.91
66026;SHT31;56312;55.976;37.136;2024-02-26T11:14:34;1.85;68.89
66026;SHT31;56312;55.976;37.136;2024-02-26T11:19:41;2.06;69.15
66026;SHT31;56312;55.976;37.136;2024-02-26T11:24:48;2.07;68.81
66026;SHT31;56312;55.976;37.136;2024-02-26T11:29:55;1.94;68.88
66026;SHT31;56312;55.976;37.136;2024-02-26T11:35:04;1.96;68.92
66026;SHT31;56312;55.976;37.136;2024-02-26T11:40:14;2.07;68.91
66026;SHT31;56312;55.976;37.136;2024-02-26T11:50:58;1.71;68.62
66026;SHT31;56312;55.976;37.136;2024-02-26T12:01:44;1.26;68.72
66026;SHT31;56312;55.976;37.136;2024-02-26T12:06:52;1.12;68.68
66026;SHT31;56312;55.976;37.136;2024-02-26T12:12:00;0.88;68.80
66026;SHT31;56312;55.976;37.136;2024-02-26T12:17:07;0.78;68.82
66026;SHT31;56312;55.976;37.136;2024-02-26T12:22:24;0.81;68.93
66026;SHT31;56312;55.976;37.136;2024-02-26T12:27:30;0.65;68.95
66026;SHT31;56312;55.976;37.136;2024-02-26T12:32:36;0.78;69.10
66026;SHT31;56312;55.976;37.136;2024-02-26T12:37:43;0.76;69.04
66026;SHT31;56312;55.976;37.136;2024-02-26T12:42:49;0.65;68.98
66026;SHT31;56312;55.976;37.136;2024-02-26T12:47:55;0.61;69.04
66026;SHT31;56312;55.976;37.136;2024-02-26T12:53:02;0.62;69.05
66026;SHT31;56312;55.976;37.136;2024-02-26T12:58:08;0.62;69.05
66026;SHT31;56312;55.976;37.136;2024-02-26T13:03:15;0.61;69.17
66026;SHT31;56312;55.976;37.136;2024-02-26T13:08:21;0.69;69.22
66026;SHT31;56312;55.976;37.136;2024-02-26T13:13:27;0.76;69.19
66026;SHT31;56312;55.976;37.136;2024-02-26T13:18:33;0.89;69.25
66026;SHT31;56312;55.976;37.136;2024-02-26T13:23:39;0.91;69.21
66026;SHT31;56312;55.976;37.136;2024-02-26T13:28:45;0.96;69.17
66026;SHT31;56312;55.976;37.136;2024-02-26T13:33:52;0.86;69.09
66026;SHT31;56312;55.976;37.136;2024-02-26T13:39:00;0.85;69.18
66026;SHT31;56312;55.976;37.136;2024-02-26T13:44:07;0.79;69.10
66026;SHT31;56312;55.976;37.136;2024-02-26T13:49:13;0.72;69.01
66026;SHT31;56312;55.976;37.136;2024-02-26T13:54:19;0.66;69.02
66026;SHT31;56312;55.976;37.136;2024-02-26T13:59:25;0.64;68.99
66026;SHT31;56312;55.976;37.136;2024-02-26T14:04:30;0.62;68.93
66026;SHT31;56312;55.976;37.136;2024-02-26T14:09:36;0.57;68.93
66026;SHT31;56312;55.976;37.136;2024-02-26T14:14:42;0.53;68.85
66026;SHT31;56312;55.976;37.136;2024-02-26T14:19:48;0.44;68.82
66026;SHT31;56312;55.976;37.136;2024-02-26T14:24:55;0.37;68.78
66026;SHT31;56312;55.976;37.136;2024-02-26T14:30:01;0.27;68.61
66026;SHT31;56312;55.976;37.136;2024-02-26T14:35:08;0.13;68.54
66026;SHT31;56312;55.976;37.136;2024-02-26T14:40:15;-0.01;68.46
66026;SHT31;56312;55.976;37.136;2024-02-26T14:45:21;-0.08;68.47
66026;SHT31;56312;55.976;37.136;2024-02-26T14:50:27;-0.21;68.41
66026;SHT31;56312;55.976;37.136;2024-02-26T14:55:33;-0.29;68.34
66026;SHT31;56312;55.976;37.136;2024-02-26T15:00:40;-0.35;68.32
66026;SHT31;56312;55.976;37.136;2024-02-26T15:05:46;-0.38;68.31
66026;SHT31;56312;55.976;37.136;2024-02-26T15:10:51;-0.35;68.27
66026;SHT31;56312;55.976;37.136;2024-02-26T15:15:57;-0.38;68.16
66026;SHT31;56312;55.976;37.136;2024-02-26T15:21:03;-0.38;68.13
66026;SHT31;56312;55.976;37.136;2024-02-26T15:26:09;-0.39;68.06
66026;SHT31;56312;55.976;37.136;2024-02-26T15:31:16;-0.45;68.04
66026;SHT31;56312;55.976;37.136;2024-02-26T15:36:22;-0.50;67.95
66026;SHT31;56312;55.976;37.136;2024-02-26T15:41:28;-0.55;67.97
66026;SHT31;56312;55.976;37.136;2024-02-26T15:46:39;-0.66;67.77
66026;SHT31;56312;55.976;37.136;2024-02-26T15:51:45;-0.79;67.59
66026;SHT31;56312;55.976;37.136;2024-02-26T15:56:51;-0.90;67.46
66026;SHT31;56312;55.976;37.136;2024-02-26T16:01:57;-0.96;67.36
66026;SHT31;56312;55.976;37.136;2024-02-26T16:07:04;-1.04;67.20
66026;SHT31;56312;55.976;37.136;2024-02-26T16:12:20;-1.14;67.11
66026;SHT31;56312;55.976;37.136;2024-02-26T16:17:31;-1.24;66.99
66026;SHT31;56312;55.976;37.136;2024-02-26T16:22:39;-1.36;66.94
66026;SHT31;56312;55.976;37.136;2024-02-26T16:27:46;-1.45;66.85
66026;SHT31;56312;55.976;37.136;2024-02-26T16:32:52;-1.53;66.77
66026;SHT31;56312;55.976;37.136;2024-02-26T16:37:58;-1.59;66.66
66026;SHT31;56312;55.976;37.136;2024-02-26T16:43:04;-1.70;66.60
66026;SHT31;56312;55.976;37.136;2024-02-26T16:48:11;-1.73;66.52
66026;SHT31;56312;55.976;37.136;2024-02-26T16:53:17;-1.77;66.43
66026;SHT31;56312;55.976;37.136;2024-02-26T16:58:23;-1.86;66.42
66026;SHT31;56312;55.976;37.136;2024-02-26T17:03:30;-1.91;66.36
66026;SHT31;56312;55.976;37.136;2024-02-26T17:08:36;-1.95;66.29
66026;SHT31;56312;55.976;37.136;2024-02-26T17:13:42;-2.01;66.32
66026;SHT31;56312;55.976;37.136;2024-02-26T17:18:48;-2.03;66.23
66026;SHT31;56312;55.976;37.136;2024-02-26T17:23:54;-2.04;66.24
66026;SHT31;56312;55.976;37.136;2024-02-26T17:29:02;-2.07;66.21
66026;SHT31;56312;55.976;37.136;2024-02-26T17:34:09;-2.08;66.22
66026;SHT31;56312;55.976;37.136;2024-02-26T17:39:15;-2.15;66.12
66026;SHT31;56312;55.976;37.136;2024-02-26T17:44:21;-2.18;66.10
66026;SHT31;56312;55.976;37.136;2024-02-26T17:49:29;-2.30;66.07
66026;SHT31;56312;55.976;37.136;2024-02-26T17:54:34;-2.32;66.00
66026;SHT31;56312;55.976;37.136;2024-02-26T17:59:40;-2.38;66.04
66026;SHT31;56312;55.976;37.136;2024-02-26T18:04:46;-2.38;66.09
66026;SHT31;56312;55.976;37.136;2024-02-26T18:09:52;-2.45;66.07
66026;SHT31;56312;55.976;37.136;2024-02-26T18:14:58;-2.56;65.97
66026;SHT31;56312;55.976;37.136;2024-02-26T18:20:04;-2.63;66.03
66026;SHT31;56312;55.976;37.136;2024-02-26T18:25:13;-2.63;66.08
66026;SHT31;56312;55.976;37.136;2024-02-26T18:30:19;-2.65;66.05
66026;SHT31;56312;55.976;37.136;2024-02-26T18:35:25;-2.69;66.10
66026;SHT31;56312;55.976;37.136;2024-02-26T18:40:31;-2.69;66.09
66026;SHT31;56312;55.976;37.136;2024-02-26T18:45:37;-2.68;66.20
66026;SHT31;56312;55.976;37.136;2024-02-26T18:50:43;-2.75;66.13
66026;SHT31;56312;55.976;37.136;2024-02-26T18:55:52;-2.83;66.17
66026;SHT31;56312;55.976;37.136;2024-02-26T19:00:58;-2.79;66.20
66026;SHT31;56312;55.976;37.136;2024-02-26T19:06:08;-2.77;66.21
66026;SHT31;56312;55.976;37.136;2024-02-26T19:11:14;-2.80;66.21
66026;SHT31;56312;55.976;37.136;2024-02-26T19:16:21;-2.79;66.25
66026;SHT31;56312;55.976;37.136;2024-02-26T19:21:28;-2.81;66.29
